createdAt,value
2023-01-20T00:02:09.997Z,1.10
2023-01-20T00:04:49.873Z,1.20
2023-01-20T00:07:37.021Z,1.20
2023-01-20T00:10:16.778Z,1.10
2023-01-20T00:13:03.896Z,1.10
2023-01-20T00:15:43.810Z,1.10
2023-01-20T00:18:30.962Z,1.10
2023-01-20T00:21:17.794Z,1.10
2023-01-20T00:24:11.797Z,1.10
2023-01-20T00:26:58.985Z,1.10
2023-01-20T00:29:38.939Z,1.10
2023-01-20T00:32:19.062Z,1.10
2023-01-20T00:35:05.894Z,1.10
2023-01-20T00:37:52.931Z,1.20
2023-01-20T00:40:32.848Z,1.10
2023-01-20T00:43:19.991Z,1.10
2023-01-20T00:45:59.821Z,1.10
2023-01-20T00:48:46.926Z,1.10
2023-01-20T00:51:26.806Z,1.10
2023-01-20T00:54:14.343Z,1.00
2023-01-20T00:56:53.876Z,1.00
2023-01-20T00:59:40.963Z,1.00
2023-01-20T01:02:20.974Z,1.00
2023-01-20T01:05:07.980Z,1.00
2023-01-20T01:07:47.930Z,0.90
2023-01-20T01:10:34.978Z,0.90
2023-01-20T01:13:14.899Z,1.00
2023-01-20T01:16:08.931Z,1.00
2023-01-20T01:18:55.865Z,1.10
2023-01-20T01:21:35.999Z,1.00
2023-01-20T01:24:22.820Z,1.10
2023-01-20T01:27:04.656Z,1.10
2023-01-20T01:29:51.941Z,1.10
2023-01-20T01:32:32.049Z,1.00
2023-01-20T01:35:18.936Z,1.00
2023-01-20T01:37:58.974Z,1.00
2023-01-20T01:40:47.902Z,1.00
2023-01-20T01:43:36.856Z,1.00
2023-01-20T01:46:23.966Z,0.90
2023-01-20T01:49:05.148Z,0.90
2023-01-20T01:51:49.974Z,0.90
2023-01-20T01:54:37.957Z,0.90
2023-01-20T01:57:18.149Z,0.90
2023-01-20T02:00:04.896Z,0.80
2023-01-20T02:02:48.279Z,0.80
2023-01-20T02:05:35.926Z,0.80
2023-01-20T02:08:16.238Z,0.80
2023-01-20T02:11:02.877Z,0.80
2023-01-20T02:13:50.053Z,0.80
2023-01-20T02:16:43.955Z,0.80
2023-01-20T02:19:33.986Z,0.80
2023-01-20T02:22:17.008Z,0.80
2023-01-20T02:25:29.038Z,0.80
2023-01-20T02:28:34.053Z,0.70
2023-01-20T02:31:13.947Z,0.70
2023-01-20T02:34:10.077Z,0.70
2023-01-20T02:37:03.915Z,0.70
2023-01-20T02:39:53.437Z,0.70
2023-01-20T02:42:49.973Z,0.70
2023-01-20T02:45:42.671Z,0.70
2023-01-20T02:48:36.036Z,0.60
2023-01-20T02:51:38.326Z,0.60
2023-01-20T02:54:20.029Z,0.60
2023-01-20T02:57:14.066Z,0.60
2023-01-20T03:00:02.048Z,0.60
2023-01-20T03:02:42.923Z,0.60
2023-01-20T03:05:27.076Z,0.60
2023-01-20T03:08:17.031Z,0.60
2023-01-20T03:10:59.666Z,0.60
2023-01-20T03:13:49.040Z,0.60
2023-01-20T03:16:44.125Z,0.70
2023-01-20T03:19:31.128Z,0.70
2023-01-20T03:22:11.099Z,0.70
2023-01-20T03:24:58.107Z,0.80
2023-01-20T03:27:38.169Z,0.80
2023-01-20T03:30:25.037Z,0.80
2023-01-20T03:33:06.206Z,0.90
2023-01-20T03:35:53.084Z,0.90
2023-01-20T03:38:33.140Z,1.00
2023-01-20T03:41:31.979Z,1.00
2023-01-20T03:44:48.389Z,1.00
2023-01-20T03:47:53.129Z,1.10
2023-01-20T03:50:46.038Z,1.00
2023-01-20T03:53:37.659Z,1.00
2023-01-20T03:56:37.065Z,1.00
2023-01-20T03:59:19.113Z,1.00
2023-01-20T04:02:06.263Z,0.90
2023-01-20T04:04:53.165Z,0.90
2023-01-20T04:07:32.990Z,0.90
2023-01-20T04:10:24.504Z,0.90
2023-01-20T04:13:04.075Z,0.90
2023-01-20T04:15:59.039Z,0.90
2023-01-20T04:18:50.197Z,0.80
2023-01-20T04:21:33.052Z,0.90
2023-01-20T04:24:41.184Z,0.90
2023-01-20T04:27:21.108Z,0.90
2023-01-20T04:30:08.128Z,0.90
2023-01-20T04:32:48.113Z,0.90
2023-01-20T04:35:35.126Z,0.80
2023-01-20T04:38:15.127Z,0.80
2023-01-20T04:41:03.668Z,0.80
2023-01-20T04:43:43.029Z,0.80
2023-01-20T04:46:30.271Z,0.80
2023-01-20T04:49:10.125Z,0.80
2023-01-20T04:51:57.146Z,0.80
2023-01-20T04:54:37.122Z,0.80
2023-01-20T04:57:24.156Z,0.80
2023-01-20T05:00:04.036Z,0.80
2023-01-20T05:02:51.499Z,0.90
2023-01-20T05:05:32.129Z,0.90
2023-01-20T05:08:19.213Z,0.90
2023-01-20T05:10:59.062Z,1.00
2023-01-20T05:13:53.108Z,1.00
2023-01-20T05:16:47.195Z,1.00
2023-01-20T05:19:34.078Z,1.00
2023-01-20T05:22:14.189Z,1.00
2023-01-20T05:25:01.118Z,0.90
2023-01-20T05:27:42.233Z,0.90
2023-01-20T05:30:29.113Z,0.90
2023-01-20T05:33:09.192Z,0.90
2023-01-20T05:35:56.197Z,0.80
2023-01-20T05:38:36.443Z,0.90
2023-01-20T05:41:23.109Z,0.90
2023-01-20T05:44:03.273Z,0.90
2023-01-20T05:46:52.025Z,1.00
2023-01-20T05:49:32.333Z,1.00
2023-01-20T05:52:19.108Z,1.00
2023-01-20T05:54:59.308Z,1.00
2023-01-20T05:57:46.193Z,1.00
2023-01-20T06:00:26.218Z,1.10
2023-01-20T06:03:13.133Z,1.10
2023-01-20T06:05:53.285Z,1.10
2023-01-20T06:08:40.232Z,1.10
2023-01-20T06:11:27.192Z,1.10
2023-01-20T06:14:15.639Z,1.10
2023-01-20T06:17:09.222Z,1.10
2023-01-20T06:19:56.363Z,1.20
2023-01-20T06:22:36.129Z,1.20
2023-01-20T06:25:23.385Z,1.20
2023-01-20T06:28:03.254Z,1.20
2023-01-20T06:30:50.309Z,1.20
2023-01-20T06:33:33.230Z,1.20
2023-01-20T06:36:20.250Z,1.20
2023-01-20T06:39:00.258Z,1.10
2023-01-20T06:41:47.380Z,1.10
2023-01-20T06:44:27.192Z,1.20
2023-01-20T06:47:14.294Z,1.20
2023-01-20T06:49:54.224Z,1.20
2023-01-20T06:52:41.267Z,1.20
2023-01-20T06:55:21.245Z,1.20
2023-01-20T06:58:08.404Z,1.20
2023-01-20T07:00:48.316Z,1.20
2023-01-20T07:03:35.349Z,1.30
2023-01-20T07:06:24.260Z,1.30
2023-01-20T07:09:19.182Z,1.30
2023-01-20T07:12:06.315Z,1.40
2023-01-20T07:14:46.205Z,1.40
2023-01-20T07:17:33.319Z,1.40
2023-01-20T07:20:13.233Z,1.40
2023-01-20T07:23:00.308Z,1.40
2023-01-20T07:25:40.275Z,1.40
2023-01-20T07:28:27.354Z,1.40
2023-01-20T07:31:14.323Z,1.40
2023-01-20T07:34:01.362Z,1.40
2023-01-20T07:36:41.197Z,1.40
2023-01-20T07:39:28.327Z,1.50
2023-01-20T07:42:08.205Z,1.50
2023-01-20T07:44:55.330Z,1.60
2023-01-20T07:47:35.209Z,1.60
2023-01-20T07:50:22.367Z,1.60
2023-01-20T07:53:02.255Z,1.70
2023-01-20T07:55:49.317Z,1.70
2023-01-20T07:58:29.238Z,1.70
2023-01-20T08:01:17.390Z,1.70
2023-01-20T08:03:58.231Z,1.70
2023-01-20T08:06:52.240Z,1.70
2023-01-20T08:09:41.553Z,1.70
2023-01-20T08:12:21.235Z,1.80
2023-01-20T08:15:08.345Z,1.70
2023-01-20T08:17:48.272Z,1.80
2023-01-20T08:20:35.353Z,1.80
2023-01-20T08:23:15.231Z,1.80
2023-01-20T08:26:09.433Z,1.90
2023-01-20T08:28:49.263Z,2.00
2023-01-20T08:31:36.550Z,2.00
2023-01-20T08:34:16.252Z,2.10
2023-01-20T08:36:57.626Z,2.10
2023-01-20T08:39:44.357Z,2.20
2023-01-20T08:42:31.352Z,2.30
2023-01-20T08:45:13.500Z,2.30
2023-01-20T08:48:02.384Z,2.40
2023-01-20T08:50:43.292Z,2.60
2023-01-20T08:53:30.393Z,2.70
2023-01-20T08:56:10.277Z,2.90
2023-01-20T08:58:57.388Z,3.10
2023-01-20T09:01:40.339Z,3.40
2023-01-20T09:04:27.415Z,3.70
2023-01-20T09:07:07.398Z,3.90
2023-01-20T09:09:54.429Z,4.20
2023-01-20T09:12:34.314Z,4.30
2023-01-20T09:15:25.446Z,4.50
2023-01-20T09:21:15.396Z,5.50
2023-01-20T09:24:02.454Z,6.20
2023-01-20T09:26:45.335Z,6.70
2023-01-20T09:29:25.613Z,7.30
2023-01-20T09:32:12.337Z,7.60
2023-01-20T09:34:52.591Z,7.80
2023-01-20T09:37:57.386Z,7.80
2023-01-20T09:41:28.578Z,7.80
2023-01-20T09:44:23.395Z,7.90
2023-01-20T09:47:30.814Z,8.10
2023-01-20T09:50:48.072Z,8.10
2023-01-20T09:53:43.357Z,7.90
2023-01-20T09:56:24.465Z,7.90
2023-01-20T09:59:17.366Z,8.00
2023-01-20T10:02:05.486Z,8.10
2023-01-20T10:04:55.363Z,8.20
2023-01-20T10:10:22.542Z,8.60
2023-01-20T10:13:19.613Z,8.90
2023-01-20T10:16:08.455Z,9.10
2023-01-20T10:18:56.713Z,9.30
2023-01-20T10:21:52.423Z,9.10
2023-01-20T10:24:44.463Z,8.60
2023-01-20T10:27:32.531Z,8.20
2023-01-20T10:30:15.521Z,7.90
2023-01-20T10:33:25.677Z,7.50
2023-01-20T10:36:07.364Z,7.20
2023-01-20T10:38:58.506Z,7.00
2023-01-20T10:41:53.401Z,6.80
2023-01-20T10:44:40.545Z,6.60
2023-01-20T10:47:39.438Z,6.50
2023-01-20T10:50:44.401Z,6.40
2023-01-20T10:53:49.521Z,6.20
2023-01-20T10:56:36.526Z,6.10
2023-01-20T10:59:18.036Z,6.10
2023-01-20T11:02:11.996Z,6.10
2023-01-20T11:04:58.995Z,6.10
2023-01-20T11:07:46.415Z,6.00
2023-01-20T11:10:34.534Z,5.90
2023-01-20T11:13:16.424Z,6.00
2023-01-20T11:16:05.549Z,6.00
2023-01-20T11:18:45.535Z,6.00
2023-01-20T11:21:40.455Z,6.00
2023-01-20T11:24:45.524Z,6.00
2023-01-20T11:27:34.475Z,6.20
2023-01-20T11:30:30.596Z,6.40
2023-01-20T11:33:30.512Z,6.50
2023-01-20T11:36:25.914Z,6.50
2023-01-20T11:39:05.454Z,6.40
2023-01-20T11:41:52.545Z,6.20
2023-01-20T11:44:32.509Z,5.90
2023-01-20T11:47:38.628Z,5.80
2023-01-20T11:50:54.477Z,5.90
2023-01-20T11:53:41.457Z,5.90
2023-01-20T11:56:24.918Z,5.90
2023-01-20T11:59:11.537Z,5.90
2023-01-20T12:02:01.829Z,5.80
2023-01-20T12:05:20.563Z,5.70
2023-01-20T12:08:02.644Z,5.60
2023-01-20T12:10:50.587Z,5.30
2023-01-20T12:13:55.549Z,5.00
2023-01-20T12:16:43.526Z,4.90
2023-01-20T12:19:26.717Z,4.80
2023-01-20T12:22:17.494Z,4.60
2023-01-20T12:25:16.520Z,4.50
2023-01-20T12:28:05.653Z,4.50
2023-01-20T12:30:57.559Z,4.40
2023-01-20T12:33:40.338Z,4.30
2023-01-20T12:36:35.548Z,4.20
2023-01-20T12:39:34.565Z,4.10
2023-01-20T12:42:24.519Z,4.00
2023-01-20T12:45:24.026Z,3.90
2023-01-20T12:48:18.502Z,3.90
2023-01-20T12:51:23.507Z,3.90
2023-01-20T12:54:12.630Z,3.80
2023-01-20T12:57:21.524Z,3.70
2023-01-20T13:00:10.687Z,3.70
2023-01-20T13:03:03.623Z,3.60
2023-01-20T13:05:51.718Z,3.70
2023-01-20T13:09:07.551Z,3.70
2023-01-20T13:11:56.653Z,3.60
2023-01-20T13:14:50.639Z,3.60
2023-01-20T13:17:36.693Z,3.60
2023-01-20T13:20:29.558Z,3.60
2023-01-20T13:23:26.558Z,3.50
2023-01-20T13:26:07.196Z,3.50
2023-01-20T13:29:03.594Z,3.40
2023-01-20T13:31:45.249Z,3.40
2023-01-20T13:34:35.557Z,3.30
2023-01-20T13:37:28.815Z,3.30
2023-01-20T13:40:09.597Z,3.30
2023-01-20T13:42:56.696Z,3.30
2023-01-20T13:45:37.667Z,3.20
2023-01-20T13:48:32.803Z,3.20
2023-01-20T13:51:21.663Z,3.20
2023-01-20T13:54:29.136Z,3.10
2023-01-20T13:57:26.600Z,3.10
2023-01-20T14:00:17.587Z,3.00
2023-01-20T14:02:57.854Z,2.90
2023-01-20T14:05:46.621Z,2.90
2023-01-20T14:08:27.750Z,2.90
2023-01-20T14:11:17.636Z,2.80
2023-01-20T14:14:02.081Z,2.80
2023-01-20T14:16:48.632Z,2.70
2023-01-20T14:19:29.828Z,2.70
2023-01-20T14:22:25.752Z,2.70
2023-01-20T14:25:05.789Z,2.70
2023-01-20T14:27:52.650Z,2.70
2023-01-20T14:30:33.798Z,2.70
2023-01-20T14:33:22.653Z,2.70
2023-01-20T14:36:03.747Z,2.70
2023-01-20T14:38:57.773Z,2.70
2023-01-20T14:41:40.748Z,2.60
2023-01-20T14:44:28.657Z,2.60
2023-01-20T14:47:17.776Z,2.60
2023-01-20T14:50:04.868Z,2.60
2023-01-20T14:52:44.777Z,2.50
2023-01-20T14:55:35.687Z,2.50
2023-01-20T14:58:15.761Z,2.50
2023-01-20T15:01:06.853Z,2.50
2023-01-20T15:03:46.670Z,2.50
2023-01-20T15:06:33.811Z,2.50
2023-01-20T15:09:31.658Z,2.40
2023-01-20T15:12:37.983Z,2.40
2023-01-20T15:15:24.772Z,2.40
2023-01-20T15:18:11.799Z,2.30
2023-01-20T15:21:16.429Z,2.30
2023-01-20T15:24:15.713Z,2.30
2023-01-20T15:26:58.391Z,2.20
2023-01-20T15:29:44.705Z,2.20
2023-01-20T15:32:25.859Z,2.20
2023-01-20T15:35:12.681Z,2.20
2023-01-20T15:37:54.007Z,2.20
2023-01-20T15:40:42.767Z,2.20
2023-01-20T15:43:26.830Z,2.20
2023-01-20T15:46:17.810Z,2.20
2023-01-20T15:48:57.904Z,2.20
2023-01-20T15:51:44.723Z,2.20
2023-01-20T15:54:24.875Z,2.20
2023-01-20T15:57:16.766Z,2.10
2023-01-20T15:59:56.920Z,2.10
2023-01-20T16:02:52.739Z,2.10
2023-01-20T16:05:32.839Z,2.10
2023-01-20T16:08:32.748Z,2.10
2023-01-20T16:10:59.914Z,2.10
2023-01-20T16:13:27.009Z,2.10
2023-01-20T16:15:54.121Z,2.10
2023-01-20T16:18:21.229Z,2.00
2023-01-20T16:20:49.931Z,2.00
2023-01-20T16:23:16.965Z,2.10
2023-01-20T16:25:44.227Z,2.10
2023-01-20T16:28:11.212Z,2.10
2023-01-20T16:30:38.154Z,2.10
2023-01-20T16:33:14.520Z,2.10
2023-01-20T16:35:45.160Z,2.10
2023-01-20T16:38:31.772Z,2.10
2023-01-20T16:41:06.762Z,2.10
2023-01-20T16:43:33.691Z,2.10
2023-01-20T16:46:02.751Z,2.10
2023-01-20T16:48:29.814Z,2.00
2023-01-20T16:50:57.044Z,2.00
2023-01-20T16:53:23.946Z,2.10
2023-01-20T16:55:50.945Z,2.00
2023-01-20T16:58:17.912Z,2.00
2023-01-20T17:00:44.943Z,2.00
2023-01-20T17:03:12.151Z,1.90
2023-01-20T17:05:39.117Z,1.90
2023-01-20T17:08:09.980Z,1.80
2023-01-20T17:10:37.059Z,1.80
2023-01-20T17:13:04.040Z,1.80
2023-01-20T17:15:31.074Z,1.80
2023-01-20T17:17:58.472Z,1.80
2023-01-20T17:20:26.398Z,1.80
2023-01-20T17:22:55.875Z,1.70
2023-01-20T17:25:23.285Z,1.70
2023-01-20T17:27:50.301Z,1.70
2023-01-20T17:30:17.713Z,1.60
2023-01-20T17:32:48.482Z,1.60
2023-01-20T17:35:22.005Z,1.50
2023-01-20T17:37:57.089Z,1.50
2023-01-20T17:40:24.023Z,1.50
2023-01-20T17:42:53.936Z,1.50
2023-01-20T17:45:20.985Z,1.50
2023-01-20T17:47:52.105Z,1.50
2023-01-20T17:50:19.352Z,1.40
2023-01-20T17:52:46.289Z,1.50
2023-01-20T17:55:13.431Z,1.50
2023-01-20T17:57:40.431Z,1.40
2023-01-20T18:00:07.772Z,1.50
2023-01-20T18:02:47.845Z,1.40
2023-01-20T18:05:21.649Z,1.40
2023-01-20T18:07:51.680Z,1.40
2023-01-20T18:10:18.736Z,1.40
2023-01-20T18:12:45.816Z,1.40
2023-01-20T18:15:12.806Z,1.30
2023-01-20T18:17:43.426Z,1.30
2023-01-20T18:20:11.228Z,1.30
2023-01-20T18:22:38.203Z,1.30
2023-01-20T18:25:05.896Z,1.30
2023-01-20T18:27:33.397Z,1.30
2023-01-20T18:30:00.306Z,1.30
2023-01-20T18:32:27.971Z,1.30
2023-01-20T18:34:55.065Z,1.20
2023-01-20T18:37:21.959Z,1.20
2023-01-20T18:39:49.005Z,1.30
2023-01-20T18:42:16.034Z,1.20
2023-01-20T18:44:42.955Z,1.20
2023-01-20T18:47:09.865Z,1.20
2023-01-20T18:49:36.882Z,1.20
2023-01-20T18:52:03.915Z,1.20
2023-01-20T18:54:32.929Z,1.30
2023-01-20T18:56:59.907Z,1.30
2023-01-20T18:59:26.840Z,1.30
2023-01-20T19:01:55.526Z,1.30
2023-01-20T19:04:30.023Z,1.20
2023-01-20T19:07:03.546Z,1.20
2023-01-20T19:09:30.534Z,1.20
2023-01-20T19:11:57.601Z,1.20
2023-01-20T19:14:24.553Z,1.20
2023-01-20T19:16:51.750Z,1.20
2023-01-20T19:19:19.357Z,1.10
2023-01-20T19:21:46.769Z,1.20
2023-01-20T19:24:17.877Z,1.10
2023-01-20T19:26:44.867Z,1.10
2023-01-20T19:29:12.987Z,1.10
2023-01-20T19:31:40.503Z,1.10
2023-01-20T19:34:08.000Z,1.10
2023-01-20T19:36:35.421Z,1.10
2023-01-20T19:39:02.564Z,1.10
2023-01-20T19:41:33.459Z,1.10
2023-01-20T19:44:02.261Z,1.10
2023-01-20T19:46:30.380Z,1.10
2023-01-20T19:48:58.469Z,1.10
2023-01-20T19:51:25.900Z,1.00
2023-01-20T19:53:55.662Z,1.00
2023-01-20T19:56:22.691Z,1.00
2023-01-20T19:58:51.473Z,0.90
2023-01-20T20:01:22.700Z,0.90
2023-01-20T20:03:50.282Z,0.80
2023-01-20T20:06:28.195Z,0.80
2023-01-20T20:08:59.558Z,0.80
2023-01-20T20:11:27.260Z,0.90
2023-01-20T20:13:55.740Z,0.90
2023-01-20T20:16:23.789Z,0.90
2023-01-20T20:18:51.392Z,0.80
2023-01-20T20:21:18.692Z,0.90
2023-01-20T20:23:48.928Z,0.90
2023-01-20T20:26:16.127Z,0.90
2023-01-20T20:28:43.049Z,0.90
2023-01-20T20:31:15.727Z,0.90
2023-01-20T20:33:42.923Z,1.00
2023-01-20T20:36:10.250Z,1.00
2023-01-20T20:38:45.028Z,1.00
2023-01-20T20:41:33.889Z,1.00
2023-01-20T20:44:02.392Z,1.00
2023-01-20T20:46:29.850Z,0.90
2023-01-20T20:48:59.429Z,0.90
2023-01-20T20:51:27.411Z,0.90
2023-01-20T20:53:55.521Z,0.90
2023-01-20T20:56:22.590Z,0.80
2023-01-20T20:59:01.905Z,0.80
2023-01-20T21:01:49.135Z,0.80
2023-01-20T21:04:19.000Z,0.80
2023-01-20T21:06:46.116Z,0.80
2023-01-20T21:09:13.034Z,0.70
2023-01-20T21:11:42.837Z,0.70
2023-01-20T21:14:10.201Z,0.70
2023-01-20T21:16:40.143Z,0.60
2023-01-20T21:19:07.113Z,0.60
2023-01-20T21:21:34.190Z,0.50
2023-01-20T21:24:02.292Z,0.60
2023-01-20T21:26:30.743Z,0.60
2023-01-20T21:29:00.384Z,0.60
2023-01-20T21:31:28.269Z,0.60
2023-01-20T21:33:58.484Z,0.50
2023-01-20T21:36:26.330Z,0.50
2023-01-20T21:38:55.366Z,0.50
2023-01-20T21:41:22.352Z,0.50
2023-01-20T21:44:08.053Z,0.50
2023-01-20T21:46:38.728Z,0.50
2023-01-20T21:49:25.361Z,0.50
2023-01-20T21:52:24.602Z,0.40
2023-01-20T21:54:51.536Z,0.40
2023-01-20T21:57:18.594Z,0.50
2023-01-20T21:59:46.170Z,0.40
2023-01-20T22:02:13.917Z,0.40
2023-01-20T22:04:41.306Z,0.40
2023-01-20T22:07:08.253Z,0.40
2023-01-20T22:09:35.175Z,0.40
2023-01-20T22:12:24.149Z,0.40
2023-01-20T22:14:57.773Z,0.40
2023-01-20T22:17:24.698Z,0.40
2023-01-20T22:19:51.687Z,0.30
2023-01-20T22:22:19.817Z,0.40
2023-01-20T22:24:46.732Z,0.30
2023-01-20T22:27:14.059Z,0.30
2023-01-20T22:29:41.014Z,0.30
2023-01-20T22:32:08.078Z,0.30
2023-01-20T22:34:35.064Z,0.30
2023-01-20T22:37:02.609Z,0.30
2023-01-20T22:39:29.804Z,0.30
2023-01-20T22:41:56.971Z,0.30
2023-01-20T22:44:23.978Z,0.30
2023-01-20T22:46:50.943Z,0.30
2023-01-20T22:49:18.004Z,0.20
2023-01-20T22:51:45.112Z,0.20
2023-01-20T22:54:18.246Z,0.20
2023-01-20T22:56:52.027Z,0.20
2023-01-20T22:59:18.927Z,0.20
2023-01-20T23:01:45.949Z,0.20
2023-01-20T23:04:13.014Z,0.20
2023-01-20T23:06:40.126Z,0.20
2023-01-20T23:09:08.517Z,0.20
2023-01-20T23:11:38.432Z,0.10
2023-01-20T23:14:05.695Z,0.10
2023-01-20T23:16:32.863Z,0.10
2023-01-20T23:18:59.813Z,0.20
2023-01-20T23:21:26.858Z,0.10
2023-01-20T23:23:56.773Z,0.20
2023-01-20T23:26:32.107Z,0.10
2023-01-20T23:28:59.746Z,0.20
2023-01-20T23:31:28.814Z,0.20
2023-01-20T23:33:55.826Z,0.20
2023-01-20T23:36:24.081Z,0.10
2023-01-20T23:38:52.953Z,0.20
2023-01-20T23:41:20.372Z,0.10
2023-01-20T23:43:47.337Z,0.20
2023-01-20T23:46:14.293Z,0.10
2023-01-20T23:48:41.359Z,0.10
2023-01-20T23:51:08.546Z,0.10
2023-01-20T23:53:37.718Z,0.10
2023-01-20T23:56:10.927Z,0.10
2023-01-20T23:58:38.197Z,0.10
